sensor_id;sensor_type;location;lat;lon;timestamp;P1;durP1;ratioP1;P2;durP2;ratioP2
1404;SDS011;697;51.114;6.542;2023-03-09T00:01:55;32.50;;;23.57;;
1404;SDS011;697;51.114;6.542;2023-03-09T00:04:23;39.20;;;24.57;;
1404;SDS011;697;51.114;6.542;2023-03-09T00:06:49;35.70;;;25.00;;
1404;SDS011;697;51.114;6.542;2023-03-09T00:09:16;35.30;;;25.17;;
1404;SDS011;697;51.114;6.542;2023-03-09T00:11:45;34.20;;;24.90;;
1404;SDS011;697;51.114;6.542;2023-03-09T00:14:13;37.17;;;26.03;;
1404;SDS011;697;51.114;6.542;2023-03-09T00:16:40;37.83;;;25.50;;
1404;SDS011;697;51.114;6.542;2023-03-09T00:19:07;34.93;;;23.10;;
1404;SDS011;697;51.114;6.542;2023-03-09T00:21:34;36.17;;;25.33;;
1404;SDS011;697;51.114;6.542;2023-03-09T00:24:03;34.27;;;23.77;;
1404;SDS011;697;51.114;6.542;2023-03-09T00:26:31;33.20;;;23.60;;
1404;SDS011;697;51.114;6.542;2023-03-09T00:29:00;32.40;;;22.37;;
1404;SDS011;697;51.114;6.542;2023-03-09T00:31:27;30.57;;;21.93;;
1404;SDS011;697;51.114;6.542;2023-03-09T00:33:53;33.50;;;23.27;;
1404;SDS011;697;51.114;6.542;2023-03-09T00:36:20;34.40;;;24.20;;
1404;SDS011;697;51.114;6.542;2023-03-09T00:38:50;32.60;;;22.37;;
1404;SDS011;697;51.114;6.542;2023-03-09T00:41:18;31.97;;;23.30;;
1404;SDS011;697;51.114;6.542;2023-03-09T00:43:45;34.47;;;22.83;;
1404;SDS011;697;51.114;6.542;2023-03-09T00:46:13;36.00;;;25.40;;
1404;SDS011;697;51.114;6.542;2023-03-09T00:48:41;34.50;;;24.03;;
1404;SDS011;697;51.114;6.542;2023-03-09T00:51:08;41.10;;;25.93;;
1404;SDS011;697;51.114;6.542;2023-03-09T00:53:35;39.00;;;26.87;;
1404;SDS011;697;51.114;6.542;2023-03-09T00:56:03;38.17;;;25.37;;
1404;SDS011;697;51.114;6.542;2023-03-09T00:58:30;36.00;;;23.67;;
1404;SDS011;697;51.114;6.542;2023-03-09T01:00:57;42.70;;;26.37;;
1404;SDS011;697;51.114;6.542;2023-03-09T01:03:26;35.30;;;24.00;;
1404;SDS011;697;51.114;6.542;2023-03-09T01:05:53;38.93;;;24.77;;
1404;SDS011;697;51.114;6.542;2023-03-09T01:08:21;39.63;;;24.43;;
1404;SDS011;697;51.114;6.542;2023-03-09T01:10:48;37.23;;;22.77;;
1404;SDS011;697;51.114;6.542;2023-03-09T01:13:14;34.43;;;23.23;;
1404;SDS011;697;51.114;6.542;2023-03-09T01:15:41;35.17;;;22.30;;
1404;SDS011;697;51.114;6.542;2023-03-09T01:18:08;37.63;;;25.60;;
1404;SDS011;697;51.114;6.542;2023-03-09T01:20:36;38.20;;;24.27;;
1404;SDS011;697;51.114;6.542;2023-03-09T01:23:03;33.50;;;22.50;;
1404;SDS011;697;51.114;6.542;2023-03-09T01:25:29;32.57;;;22.97;;
1404;SDS011;697;51.114;6.542;2023-03-09T01:27:56;38.27;;;22.10;;
1404;SDS011;697;51.114;6.542;2023-03-09T01:30:23;32.53;;;22.20;;
1404;SDS011;697;51.114;6.542;2023-03-09T01:32:49;33.80;;;22.63;;
1404;SDS011;697;51.114;6.542;2023-03-09T01:35:16;35.20;;;23.40;;
1404;SDS011;697;51.114;6.542;2023-03-09T01:37:44;32.37;;;21.33;;
1404;SDS011;697;51.114;6.542;2023-03-09T01:40:15;33.73;;;23.53;;
1404;SDS011;697;51.114;6.542;2023-03-09T01:42:43;34.33;;;23.23;;
1404;SDS011;697;51.114;6.542;2023-03-09T01:48:17;34.87;;;24.10;;
1404;SDS011;697;51.114;6.542;2023-03-09T01:50:43;35.60;;;23.67;;
1404;SDS011;697;51.114;6.542;2023-03-09T01:53:13;41.83;;;24.70;;
1404;SDS011;697;51.114;6.542;2023-03-09T01:55:43;34.03;;;22.87;;
1404;SDS011;697;51.114;6.542;2023-03-09T01:58:13;32.30;;;23.00;;
1404;SDS011;697;51.114;6.542;2023-03-09T02:00:42;36.93;;;23.80;;
1404;SDS011;697;51.114;6.542;2023-03-09T02:03:13;37.77;;;22.43;;
1404;SDS011;697;51.114;6.542;2023-03-09T02:05:43;35.13;;;23.73;;
1404;SDS011;697;51.114;6.542;2023-03-09T02:08:13;39.47;;;23.87;;
1404;SDS011;697;51.114;6.542;2023-03-09T02:10:40;39.50;;;24.60;;
1404;SDS011;697;51.114;6.542;2023-03-09T02:13:10;37.40;;;24.40;;
1404;SDS011;697;51.114;6.542;2023-03-09T02:15:40;42.60;;;25.43;;
1404;SDS011;697;51.114;6.542;2023-03-09T02:18:07;39.73;;;24.50;;
1404;SDS011;697;51.114;6.542;2023-03-09T02:20:36;40.70;;;26.13;;
1404;SDS011;697;51.114;6.542;2023-03-09T02:23:10;37.77;;;24.43;;
1404;SDS011;697;51.114;6.542;2023-03-09T02:25:45;41.50;;;23.90;;
1404;SDS011;697;51.114;6.542;2023-03-09T02:28:18;38.63;;;25.13;;
1404;SDS011;697;51.114;6.542;2023-03-09T02:30:45;40.13;;;23.00;;
1404;SDS011;697;51.114;6.542;2023-03-09T02:33:21;38.73;;;24.13;;
1404;SDS011;697;51.114;6.542;2023-03-09T02:35:51;43.53;;;25.73;;
1404;SDS011;697;51.114;6.542;2023-03-09T02:38:18;40.23;;;25.20;;
1404;SDS011;697;51.114;6.542;2023-03-09T02:40:44;48.20;;;26.47;;
1404;SDS011;697;51.114;6.542;2023-03-09T02:43:12;44.80;;;25.40;;
1404;SDS011;697;51.114;6.542;2023-03-09T02:45:42;44.30;;;25.17;;
1404;SDS011;697;51.114;6.542;2023-03-09T02:48:09;39.90;;;23.67;;
1404;SDS011;697;51.114;6.542;2023-03-09T02:50:35;42.30;;;23.77;;
1404;SDS011;697;51.114;6.542;2023-03-09T02:53:02;38.43;;;24.70;;
1404;SDS011;697;51.114;6.542;2023-03-09T02:55:29;39.93;;;23.60;;
1404;SDS011;697;51.114;6.542;2023-03-09T02:57:56;37.53;;;23.70;;
1404;SDS011;697;51.114;6.542;2023-03-09T03:00:22;38.20;;;23.73;;
1404;SDS011;697;51.114;6.542;2023-03-09T03:02:52;42.10;;;24.80;;
1404;SDS011;697;51.114;6.542;2023-03-09T03:05:19;40.37;;;23.60;;
1404;SDS011;697;51.114;6.542;2023-03-09T03:07:46;45.07;;;26.50;;
1404;SDS011;697;51.114;6.542;2023-03-09T03:10:13;45.77;;;24.67;;
1404;SDS011;697;51.114;6.542;2023-03-09T03:12:40;43.47;;;25.87;;
1404;SDS011;697;51.114;6.542;2023-03-09T03:15:07;44.20;;;25.30;;
1404;SDS011;697;51.114;6.542;2023-03-09T03:17:34;47.70;;;26.63;;
1404;SDS011;697;51.114;6.542;2023-03-09T03:20:03;45.80;;;25.80;;
1404;SDS011;697;51.114;6.542;2023-03-09T03:22:36;47.13;;;25.60;;
1404;SDS011;697;51.114;6.542;2023-03-09T03:25:03;49.43;;;27.50;;
1404;SDS011;697;51.114;6.542;2023-03-09T03:27:31;54.60;;;27.20;;
1404;SDS011;697;51.114;6.542;2023-03-09T03:29:58;44.50;;;25.50;;
1404;SDS011;697;51.114;6.542;2023-03-09T03:32:26;50.40;;;26.40;;
1404;SDS011;697;51.114;6.542;2023-03-09T03:34:52;46.90;;;26.33;;
1404;SDS011;697;51.114;6.542;2023-03-09T03:37:21;52.93;;;28.93;;
1404;SDS011;697;51.114;6.542;2023-03-09T03:39:48;55.93;;;30.93;;
1404;SDS011;697;51.114;6.542;2023-03-09T03:42:14;57.63;;;30.00;;
1404;SDS011;697;51.114;6.542;2023-03-09T03:44:41;53.73;;;29.13;;
1404;SDS011;697;51.114;6.542;2023-03-09T03:47:08;59.17;;;28.17;;
1404;SDS011;697;51.114;6.542;2023-03-09T03:49:34;64.40;;;31.50;;
1404;SDS011;697;51.114;6.542;2023-03-09T03:52:01;63.23;;;32.20;;
1404;SDS011;697;51.114;6.542;2023-03-09T03:54:29;56.80;;;29.83;;
1404;SDS011;697;51.114;6.542;2023-03-09T03:56:56;60.20;;;32.33;;
1404;SDS011;697;51.114;6.542;2023-03-09T03:59:23;57.27;;;30.00;;
1404;SDS011;697;51.114;6.542;2023-03-09T04:01:49;60.50;;;31.30;;
1404;SDS011;697;51.114;6.542;2023-03-09T04:04:16;58.87;;;30.20;;
1404;SDS011;697;51.114;6.542;2023-03-09T04:06:43;64.93;;;31.57;;
1404;SDS011;697;51.114;6.542;2023-03-09T04:09:09;56.90;;;30.07;;
1404;SDS011;697;51.114;6.542;2023-03-09T04:11:38;59.30;;;29.50;;
1404;SDS011;697;51.114;6.542;2023-03-09T04:14:04;55.03;;;29.23;;
1404;SDS011;697;51.114;6.542;2023-03-09T04:16:31;60.97;;;30.67;;
1404;SDS011;697;51.114;6.542;2023-03-09T04:18:58;54.43;;;28.03;;
1404;SDS011;697;51.114;6.542;2023-03-09T04:21:24;64.30;;;29.07;;
1404;SDS011;697;51.114;6.542;2023-03-09T04:23:51;58.67;;;29.00;;
1404;SDS011;697;51.114;6.542;2023-03-09T04:26:18;64.87;;;29.60;;
1404;SDS011;697;51.114;6.542;2023-03-09T04:28:46;59.37;;;30.30;;
1404;SDS011;697;51.114;6.542;2023-03-09T04:31:12;58.13;;;30.97;;
1404;SDS011;697;51.114;6.542;2023-03-09T04:33:39;60.37;;;28.83;;
1404;SDS011;697;51.114;6.542;2023-03-09T04:36:07;55.30;;;29.27;;
1404;SDS011;697;51.114;6.542;2023-03-09T04:38:35;54.10;;;28.23;;
1404;SDS011;697;51.114;6.542;2023-03-09T04:41:02;53.90;;;27.83;;
1404;SDS011;697;51.114;6.542;2023-03-09T04:43:29;53.90;;;29.00;;
1404;SDS011;697;51.114;6.542;2023-03-09T04:45:57;53.43;;;29.07;;
1404;SDS011;697;51.114;6.542;2023-03-09T04:48:24;50.97;;;27.43;;
1404;SDS011;697;51.114;6.542;2023-03-09T04:50:50;48.50;;;26.30;;
1404;SDS011;697;51.114;6.542;2023-03-09T04:53:17;51.27;;;27.80;;
1404;SDS011;697;51.114;6.542;2023-03-09T04:55:44;52.10;;;26.60;;
1404;SDS011;697;51.114;6.542;2023-03-09T04:58:10;53.60;;;28.20;;
1404;SDS011;697;51.114;6.542;2023-03-09T05:00:37;52.47;;;28.03;;
1404;SDS011;697;51.114;6.542;2023-03-09T05:03:05;55.97;;;29.10;;
1404;SDS011;697;51.114;6.542;2023-03-09T05:05:32;53.83;;;27.33;;
1404;SDS011;697;51.114;6.542;2023-03-09T05:07:59;49.87;;;26.97;;
1404;SDS011;697;51.114;6.542;2023-03-09T05:10:25;42.23;;;26.40;;
1404;SDS011;697;51.114;6.542;2023-03-09T05:12:52;54.70;;;28.90;;
1404;SDS011;697;51.114;6.542;2023-03-09T05:15:19;52.07;;;28.87;;
1404;SDS011;697;51.114;6.542;2023-03-09T05:17:45;51.83;;;28.27;;
1404;SDS011;697;51.114;6.542;2023-03-09T05:20:13;51.33;;;28.83;;
1404;SDS011;697;51.114;6.542;2023-03-09T05:22:41;50.50;;;28.47;;
1404;SDS011;697;51.114;6.542;2023-03-09T05:25:08;50.00;;;28.37;;
1404;SDS011;697;51.114;6.542;2023-03-09T05:27:36;44.57;;;25.70;;
1404;SDS011;697;51.114;6.542;2023-03-09T05:30:03;53.47;;;29.47;;
1404;SDS011;697;51.114;6.542;2023-03-09T05:32:30;52.30;;;27.03;;
1404;SDS011;697;51.114;6.542;2023-03-09T05:34:57;50.57;;;27.70;;
1404;SDS011;697;51.114;6.542;2023-03-09T05:37:25;52.63;;;29.13;;
1404;SDS011;697;51.114;6.542;2023-03-09T05:39:51;55.87;;;31.30;;
1404;SDS011;697;51.114;6.542;2023-03-09T05:42:18;59.50;;;34.80;;
1404;SDS011;697;51.114;6.542;2023-03-09T05:44:45;67.87;;;39.90;;
1404;SDS011;697;51.114;6.542;2023-03-09T05:47:11;69.40;;;39.30;;
1404;SDS011;697;51.114;6.542;2023-03-09T05:49:38;53.80;;;30.70;;
1404;SDS011;697;51.114;6.542;2023-03-09T05:52:05;55.77;;;29.67;;
1404;SDS011;697;51.114;6.542;2023-03-09T05:54:33;52.20;;;28.60;;
1404;SDS011;697;51.114;6.542;2023-03-09T05:57:00;54.90;;;27.50;;
1404;SDS011;697;51.114;6.542;2023-03-09T05:59:27;51.83;;;28.03;;
1404;SDS011;697;51.114;6.542;2023-03-09T06:01:53;48.27;;;26.90;;
1404;SDS011;697;51.114;6.542;2023-03-09T06:04:20;47.97;;;26.23;;
1404;SDS011;697;51.114;6.542;2023-03-09T06:06:47;48.70;;;26.40;;
1404;SDS011;697;51.114;6.542;2023-03-09T06:09:13;42.40;;;25.00;;
1404;SDS011;697;51.114;6.542;2023-03-09T06:11:41;42.80;;;26.00;;
1404;SDS011;697;51.114;6.542;2023-03-09T06:14:08;42.53;;;24.47;;
1404;SDS011;697;51.114;6.542;2023-03-09T06:16:35;43.67;;;25.90;;
1404;SDS011;697;51.114;6.542;2023-03-09T06:19:02;45.77;;;25.17;;
1404;SDS011;697;51.114;6.542;2023-03-09T06:21:29;48.97;;;24.83;;
1404;SDS011;697;51.114;6.542;2023-03-09T06:23:56;49.60;;;26.13;;
1404;SDS011;697;51.114;6.542;2023-03-09T06:26:24;46.47;;;25.10;;
1404;SDS011;697;51.114;6.542;2023-03-09T06:28:52;46.97;;;25.17;;
1404;SDS011;697;51.114;6.542;2023-03-09T06:31:19;51.40;;;26.53;;
1404;SDS011;697;51.114;6.542;2023-03-09T06:33:46;45.30;;;26.10;;
1404;SDS011;697;51.114;6.542;2023-03-09T06:36:13;47.60;;;25.30;;
1404;SDS011;697;51.114;6.542;2023-03-09T06:38:42;44.73;;;24.40;;
1404;SDS011;697;51.114;6.542;2023-03-09T06:41:09;47.53;;;27.33;;
1404;SDS011;697;51.114;6.542;2023-03-09T06:43:37;47.23;;;27.47;;
1404;SDS011;697;51.114;6.542;2023-03-09T06:46:07;54.63;;;27.87;;
1404;SDS011;697;51.114;6.542;2023-03-09T06:48:34;44.13;;;24.73;;
1404;SDS011;697;51.114;6.542;2023-03-09T06:51:01;44.03;;;24.80;;
1404;SDS011;697;51.114;6.542;2023-03-09T06:53:27;45.53;;;23.87;;
1404;SDS011;697;51.114;6.542;2023-03-09T06:55:57;43.50;;;23.90;;
1404;SDS011;697;51.114;6.542;2023-03-09T06:58:25;45.03;;;26.20;;
1404;SDS011;697;51.114;6.542;2023-03-09T07:00:51;42.47;;;23.70;;
1404;SDS011;697;51.114;6.542;2023-03-09T07:03:19;42.73;;;24.53;;
1404;SDS011;697;51.114;6.542;2023-03-09T07:05:46;43.43;;;25.27;;
1404;SDS011;697;51.114;6.542;2023-03-09T07:08:13;45.07;;;25.40;;
1404;SDS011;697;51.114;6.542;2023-03-09T07:10:39;45.23;;;25.33;;
1404;SDS011;697;51.114;6.542;2023-03-09T07:13:10;40.50;;;25.00;;
1404;SDS011;697;51.114;6.542;2023-03-09T07:15:38;43.43;;;25.43;;
1404;SDS011;697;51.114;6.542;2023-03-09T07:18:05;42.40;;;24.53;;
1404;SDS011;697;51.114;6.542;2023-03-09T07:20:33;45.07;;;25.80;;
1404;SDS011;697;51.114;6.542;2023-03-09T07:23:00;35.40;;;21.67;;
1404;SDS011;697;51.114;6.542;2023-03-09T07:25:27;35.23;;;20.47;;
1404;SDS011;697;51.114;6.542;2023-03-09T07:27:53;43.50;;;25.07;;
1404;SDS011;697;51.114;6.542;2023-03-09T07:30:20;37.40;;;22.53;;
1404;SDS011;697;51.114;6.542;2023-03-09T07:32:47;38.83;;;23.43;;
1404;SDS011;697;51.114;6.542;2023-03-09T07:35:14;42.73;;;24.60;;
1404;SDS011;697;51.114;6.542;2023-03-09T07:37:42;42.33;;;24.50;;
1404;SDS011;697;51.114;6.542;2023-03-09T07:40:09;40.40;;;22.57;;
1404;SDS011;697;51.114;6.542;2023-03-09T07:42:36;35.83;;;21.97;;
1404;SDS011;697;51.114;6.542;2023-03-09T07:45:03;42.37;;;25.00;;
1404;SDS011;697;51.114;6.542;2023-03-09T07:47:31;38.70;;;22.90;;
1404;SDS011;697;51.114;6.542;2023-03-09T07:49:58;40.60;;;23.20;;
1404;SDS011;697;51.114;6.542;2023-03-09T07:52:25;38.77;;;21.27;;
1404;SDS011;697;51.114;6.542;2023-03-09T07:54:57;38.67;;;22.33;;
1404;SDS011;697;51.114;6.542;2023-03-09T07:57:24;44.93;;;24.00;;
1404;SDS011;697;51.114;6.542;2023-03-09T07:59:52;38.90;;;23.60;;
1404;SDS011;697;51.114;6.542;2023-03-09T08:02:19;37.40;;;21.83;;
1404;SDS011;697;51.114;6.542;2023-03-09T08:04:49;39.00;;;21.57;;
1404;SDS011;697;51.114;6.542;2023-03-09T08:07:16;37.80;;;21.70;;
1404;SDS011;697;51.114;6.542;2023-03-09T08:09:43;36.80;;;22.93;;
1404;SDS011;697;51.114;6.542;2023-03-09T08:12:12;35.23;;;20.97;;
1404;SDS011;697;51.114;6.542;2023-03-09T08:14:39;37.47;;;22.33;;
1404;SDS011;697;51.114;6.542;2023-03-09T08:17:05;33.53;;;20.63;;
1404;SDS011;697;51.114;6.542;2023-03-09T08:19:32;37.80;;;22.50;;
1404;SDS011;697;51.114;6.542;2023-03-09T08:21:59;35.20;;;21.97;;
1404;SDS011;697;51.114;6.542;2023-03-09T08:24:25;33.80;;;20.07;;
1404;SDS011;697;51.114;6.542;2023-03-09T08:26:53;31.30;;;18.80;;
1404;SDS011;697;51.114;6.542;2023-03-09T08:29:20;35.07;;;21.00;;
1404;SDS011;697;51.114;6.542;2023-03-09T08:31:47;34.83;;;21.23;;
1404;SDS011;697;51.114;6.542;2023-03-09T08:34:14;36.77;;;20.57;;
1404;SDS011;697;51.114;6.542;2023-03-09T08:36:44;35.87;;;21.50;;
1404;SDS011;697;51.114;6.542;2023-03-09T08:39:10;34.20;;;22.40;;
1404;SDS011;697;51.114;6.542;2023-03-09T08:41:37;32.93;;;20.47;;
1404;SDS011;697;51.114;6.542;2023-03-09T08:44:04;33.10;;;20.87;;
1404;SDS011;697;51.114;6.542;2023-03-09T08:46:32;35.40;;;22.37;;
1404;SDS011;697;51.114;6.542;2023-03-09T08:48:58;33.87;;;20.53;;
1404;SDS011;697;51.114;6.542;2023-03-09T08:51:25;32.33;;;20.37;;
1404;SDS011;697;51.114;6.542;2023-03-09T08:53:54;34.27;;;21.07;;
1404;SDS011;697;51.114;6.542;2023-03-09T08:56:20;32.13;;;19.90;;
1404;SDS011;697;51.114;6.542;2023-03-09T08:58:47;34.40;;;19.23;;
1404;SDS011;697;51.114;6.542;2023-03-09T09:01:14;35.77;;;21.90;;
1404;SDS011;697;51.114;6.542;2023-03-09T09:03:42;34.70;;;21.63;;
1404;SDS011;697;51.114;6.542;2023-03-09T09:06:10;33.23;;;20.20;;
1404;SDS011;697;51.114;6.542;2023-03-09T09:08:38;37.63;;;21.40;;
1404;SDS011;697;51.114;6.542;2023-03-09T09:11:06;37.50;;;21.83;;
1404;SDS011;697;51.114;6.542;2023-03-09T09:13:33;32.67;;;22.23;;
1404;SDS011;697;51.114;6.542;2023-03-09T09:15:59;33.30;;;21.47;;
1404;SDS011;697;51.114;6.542;2023-03-09T09:18:26;31.83;;;18.63;;
1404;SDS011;697;51.114;6.542;2023-03-09T09:20:54;32.10;;;19.70;;
1404;SDS011;697;51.114;6.542;2023-03-09T09:23:21;34.87;;;19.43;;
1404;SDS011;697;51.114;6.542;2023-03-09T09:25:53;32.40;;;18.13;;
1404;SDS011;697;51.114;6.542;2023-03-09T09:28:21;32.33;;;18.93;;
1404;SDS011;697;51.114;6.542;2023-03-09T09:30:52;33.03;;;20.00;;
1404;SDS011;697;51.114;6.542;2023-03-09T09:33:19;26.50;;;18.33;;
1404;SDS011;697;51.114;6.542;2023-03-09T09:35:54;27.10;;;17.57;;
1404;SDS011;697;51.114;6.542;2023-03-09T09:38:23;33.63;;;19.30;;
1404;SDS011;697;51.114;6.542;2023-03-09T09:40:50;27.47;;;18.17;;
1404;SDS011;697;51.114;6.542;2023-03-09T09:43:18;27.73;;;17.90;;
1404;SDS011;697;51.114;6.542;2023-03-09T09:45:45;25.33;;;17.77;;
1404;SDS011;697;51.114;6.542;2023-03-09T09:48:14;26.97;;;17.33;;
1404;SDS011;697;51.114;6.542;2023-03-09T09:50:47;28.97;;;17.73;;
1404;SDS011;697;51.114;6.542;2023-03-09T09:53:27;26.87;;;17.93;;
1404;SDS011;697;51.114;6.542;2023-03-09T09:56:00;29.20;;;19.23;;
1404;SDS011;697;51.114;6.542;2023-03-09T09:58:30;29.67;;;17.70;;
1404;SDS011;697;51.114;6.542;2023-03-09T10:01:02;28.40;;;18.60;;
1404;SDS011;697;51.114;6.542;2023-03-09T10:03:33;29.00;;;19.17;;
1404;SDS011;697;51.114;6.542;2023-03-09T10:06:03;29.37;;;18.27;;
1404;SDS011;697;51.114;6.542;2023-03-09T10:08:36;30.80;;;18.77;;
1404;SDS011;697;51.114;6.542;2023-03-09T10:11:10;34.27;;;21.77;;
1404;SDS011;697;51.114;6.542;2023-03-09T10:13:42;30.40;;;19.23;;
1404;SDS011;697;51.114;6.542;2023-03-09T10:16:13;32.47;;;20.10;;
1404;SDS011;697;51.114;6.542;2023-03-09T10:18:43;35.53;;;20.63;;
1404;SDS011;697;51.114;6.542;2023-03-09T10:21:15;28.97;;;19.10;;
1404;SDS011;697;51.114;6.542;2023-03-09T10:23:48;30.30;;;19.40;;
1404;SDS011;697;51.114;6.542;2023-03-09T10:26:21;27.40;;;19.10;;
1404;SDS011;697;51.114;6.542;2023-03-09T10:29:03;33.77;;;20.73;;
1404;SDS011;697;51.114;6.542;2023-03-09T10:31:39;28.80;;;19.50;;
1404;SDS011;697;51.114;6.542;2023-03-09T10:34:13;28.43;;;18.63;;
1404;SDS011;697;51.114;6.542;2023-03-09T10:36:44;31.60;;;20.00;;
1404;SDS011;697;51.114;6.542;2023-03-09T10:39:22;31.07;;;19.40;;
1404;SDS011;697;51.114;6.542;2023-03-09T10:41:49;28.73;;;19.43;;
1404;SDS011;697;51.114;6.542;2023-03-09T10:44:17;28.30;;;18.43;;
1404;SDS011;697;51.114;6.542;2023-03-09T10:46:55;30.10;;;18.20;;
1404;SDS011;697;51.114;6.542;2023-03-09T10:49:24;24.40;;;17.43;;
1404;SDS011;697;51.114;6.542;2023-03-09T10:51:55;26.73;;;18.10;;
1404;SDS011;697;51.114;6.542;2023-03-09T10:54:28;26.07;;;17.70;;
1404;SDS011;697;51.114;6.542;2023-03-09T10:56:58;29.17;;;19.77;;
1404;SDS011;697;51.114;6.542;2023-03-09T10:59:25;29.60;;;19.00;;
1404;SDS011;697;51.114;6.542;2023-03-09T11:01:54;27.63;;;18.77;;
1404;SDS011;697;51.114;6.542;2023-03-09T11:04:34;27.20;;;18.53;;
1404;SDS011;697;51.114;6.542;2023-03-09T11:07:02;24.47;;;18.13;;
1404;SDS011;697;51.114;6.542;2023-03-09T11:09:34;27.43;;;19.37;;
1404;SDS011;697;51.114;6.542;2023-03-09T11:12:09;25.83;;;18.47;;
1404;SDS011;697;51.114;6.542;2023-03-09T11:14:43;25.10;;;17.47;;
1404;SDS011;697;51.114;6.542;2023-03-09T11:20:10;26.73;;;19.27;;
1404;SDS011;697;51.114;6.542;2023-03-09T11:22:51;32.57;;;21.10;;
1404;SDS011;697;51.114;6.542;2023-03-09T11:25:28;28.47;;;18.77;;
1404;SDS011;697;51.114;6.542;2023-03-09T11:28:03;24.50;;;18.30;;
1404;SDS011;697;51.114;6.542;2023-03-09T11:30:37;26.33;;;18.13;;
1404;SDS011;697;51.114;6.542;2023-03-09T11:33:07;30.17;;;19.20;;
1404;SDS011;697;51.114;6.542;2023-03-09T11:35:35;30.43;;;18.70;;
1404;SDS011;697;51.114;6.542;2023-03-09T11:38:02;27.63;;;18.90;;
1404;SDS011;697;51.114;6.542;2023-03-09T11:40:37;24.30;;;16.93;;
1404;SDS011;697;51.114;6.542;2023-03-09T11:43:07;25.30;;;18.50;;
1404;SDS011;697;51.114;6.542;2023-03-09T11:45:39;27.63;;;19.50;;
1404;SDS011;697;51.114;6.542;2023-03-09T11:48:11;28.07;;;18.70;;
1404;SDS011;697;51.114;6.542;2023-03-09T11:50:46;28.23;;;19.70;;
1404;SDS011;697;51.114;6.542;2023-03-09T11:53:22;30.00;;;20.00;;
1404;SDS011;697;51.114;6.542;2023-03-09T11:55:54;30.50;;;19.80;;
1404;SDS011;697;51.114;6.542;2023-03-09T11:58:25;26.20;;;18.93;;
1404;SDS011;697;51.114;6.542;2023-03-09T12:01:01;26.30;;;17.47;;
1404;SDS011;697;51.114;6.542;2023-03-09T12:03:35;29.20;;;17.70;;
1404;SDS011;697;51.114;6.542;2023-03-09T12:06:10;31.30;;;22.00;;
1404;SDS011;697;51.114;6.542;2023-03-09T12:08:51;28.70;;;18.60;;
1404;SDS011;697;51.114;6.542;2023-03-09T12:11:23;25.17;;;18.30;;
1404;SDS011;697;51.114;6.542;2023-03-09T12:13:54;23.87;;;17.13;;
1404;SDS011;697;51.114;6.542;2023-03-09T12:16:24;29.77;;;19.70;;
1404;SDS011;697;51.114;6.542;2023-03-09T12:18:57;26.90;;;18.73;;
1404;SDS011;697;51.114;6.542;2023-03-09T12:21:28;28.07;;;19.10;;
1404;SDS011;697;51.114;6.542;2023-03-09T12:23:56;29.83;;;20.93;;
1404;SDS011;697;51.114;6.542;2023-03-09T12:26:29;38.63;;;22.17;;
1404;SDS011;697;51.114;6.542;2023-03-09T12:28:58;33.37;;;20.53;;
1404;SDS011;697;51.114;6.542;2023-03-09T12:31:41;31.77;;;20.23;;
1404;SDS011;697;51.114;6.542;2023-03-09T12:34:24;26.17;;;17.63;;
1404;SDS011;697;51.114;6.542;2023-03-09T12:36:54;28.50;;;19.60;;
1404;SDS011;697;51.114;6.542;2023-03-09T12:39:59;25.60;;;18.30;;
1404;SDS011;697;51.114;6.542;2023-03-09T12:42:34;28.67;;;19.17;;
1404;SDS011;697;51.114;6.542;2023-03-09T12:45:03;26.57;;;17.57;;
1404;SDS011;697;51.114;6.542;2023-03-09T12:47:50;27.40;;;18.83;;
1404;SDS011;697;51.114;6.542;2023-03-09T12:50:21;26.27;;;18.20;;
1404;SDS011;697;51.114;6.542;2023-03-09T12:52:55;26.17;;;18.90;;
1404;SDS011;697;51.114;6.542;2023-03-09T12:55:41;27.90;;;18.87;;
1404;SDS011;697;51.114;6.542;2023-03-09T12:58:33;25.87;;;18.83;;
1404;SDS011;697;51.114;6.542;2023-03-09T13:01:08;23.60;;;16.33;;
1404;SDS011;697;51.114;6.542;2023-03-09T13:03:43;26.03;;;18.60;;
1404;SDS011;697;51.114;6.542;2023-03-09T13:06:21;26.87;;;17.57;;
1404;SDS011;697;51.114;6.542;2023-03-09T13:08:52;24.90;;;16.63;;
1404;SDS011;697;51.114;6.542;2023-03-09T13:11:28;24.13;;;18.00;;
1404;SDS011;697;51.114;6.542;2023-03-09T13:13:59;26.30;;;17.83;;
1404;SDS011;697;51.114;6.542;2023-03-09T13:16:37;28.27;;;19.67;;
1404;SDS011;697;51.114;6.542;2023-03-09T13:19:29;25.13;;;17.67;;
1404;SDS011;697;51.114;6.542;2023-03-09T13:22:11;30.33;;;19.80;;
1404;SDS011;697;51.114;6.542;2023-03-09T13:28:14;32.97;;;21.87;;
1404;SDS011;697;51.114;6.542;2023-03-09T13:31:05;33.47;;;22.07;;
1404;SDS011;697;51.114;6.542;2023-03-09T13:33:43;35.27;;;21.93;;
1404;SDS011;697;51.114;6.542;2023-03-09T13:36:13;35.77;;;23.40;;
1404;SDS011;697;51.114;6.542;2023-03-09T13:38:43;37.60;;;24.17;;
1404;SDS011;697;51.114;6.542;2023-03-09T13:41:15;32.90;;;23.20;;
1404;SDS011;697;51.114;6.542;2023-03-09T13:43:46;31.90;;;22.30;;
1404;SDS011;697;51.114;6.542;2023-03-09T13:46:23;33.43;;;21.80;;
1404;SDS011;697;51.114;6.542;2023-03-09T13:48:53;31.73;;;20.93;;
1404;SDS011;697;51.114;6.542;2023-03-09T13:51:23;29.07;;;21.27;;
1404;SDS011;697;51.114;6.542;2023-03-09T13:54:00;32.33;;;20.60;;
1404;SDS011;697;51.114;6.542;2023-03-09T13:56:26;34.27;;;22.37;;
1404;SDS011;697;51.114;6.542;2023-03-09T13:58:54;28.10;;;20.53;;
1404;SDS011;697;51.114;6.542;2023-03-09T14:01:24;28.80;;;20.07;;
1404;SDS011;697;51.114;6.542;2023-03-09T14:03:53;27.60;;;21.10;;
1404;SDS011;697;51.114;6.542;2023-03-09T14:06:26;25.87;;;18.53;;
1404;SDS011;697;51.114;6.542;2023-03-09T14:09:01;27.20;;;19.50;;
1404;SDS011;697;51.114;6.542;2023-03-09T14:11:40;21.47;;;17.17;;
1404;SDS011;697;51.114;6.542;2023-03-09T14:14:14;22.80;;;17.43;;
1404;SDS011;697;51.114;6.542;2023-03-09T14:16:45;18.93;;;15.70;;
1404;SDS011;697;51.114;6.542;2023-03-09T14:19:19;21.77;;;15.00;;
1404;SDS011;697;51.114;6.542;2023-03-09T14:21:49;23.63;;;16.57;;
1404;SDS011;697;51.114;6.542;2023-03-09T14:24:22;21.00;;;17.37;;
1404;SDS011;697;51.114;6.542;2023-03-09T14:26:51;18.33;;;14.43;;
1404;SDS011;697;51.114;6.542;2023-03-09T14:29:19;19.67;;;15.17;;
1404;SDS011;697;51.114;6.542;2023-03-09T14:31:56;16.13;;;13.87;;
1404;SDS011;697;51.114;6.542;2023-03-09T14:34:42;17.50;;;14.43;;
1404;SDS011;697;51.114;6.542;2023-03-09T14:37:13;16.50;;;13.60;;
1404;SDS011;697;51.114;6.542;2023-03-09T14:39:43;18.80;;;13.80;;
1404;SDS011;697;51.114;6.542;2023-03-09T14:42:17;16.57;;;14.20;;
1404;SDS011;697;51.114;6.542;2023-03-09T14:44:58;16.03;;;14.43;;
1404;SDS011;697;51.114;6.542;2023-03-09T14:47:28;18.47;;;14.03;;
1404;SDS011;697;51.114;6.542;2023-03-09T14:49:54;19.70;;;16.07;;
1404;SDS011;697;51.114;6.542;2023-03-09T14:52:21;19.60;;;16.07;;
1404;SDS011;697;51.114;6.542;2023-03-09T14:54:51;20.30;;;15.63;;
1404;SDS011;697;51.114;6.542;2023-03-09T14:57:18;20.40;;;16.40;;
1404;SDS011;697;51.114;6.542;2023-03-09T14:59:45;20.87;;;15.90;;
1404;SDS011;697;51.114;6.542;2023-03-09T15:02:13;29.00;;;16.27;;
1404;SDS011;697;51.114;6.542;2023-03-09T15:04:43;18.90;;;15.90;;
1404;SDS011;697;51.114;6.542;2023-03-09T15:07:12;18.07;;;15.47;;
1404;SDS011;697;51.114;6.542;2023-03-09T15:09:40;20.53;;;15.87;;
1404;SDS011;697;51.114;6.542;2023-03-09T15:12:09;17.87;;;15.80;;
1404;SDS011;697;51.114;6.542;2023-03-09T15:14:38;19.77;;;15.83;;
1404;SDS011;697;51.114;6.542;2023-03-09T15:17:06;18.90;;;16.73;;
1404;SDS011;697;51.114;6.542;2023-03-09T15:19:33;19.80;;;16.20;;
1404;SDS011;697;51.114;6.542;2023-03-09T15:22:02;21.67;;;17.70;;
1404;SDS011;697;51.114;6.542;2023-03-09T15:24:29;24.00;;;17.60;;